Time;durP1;ratioP1;P1;durP2;ratioP2;P2;SDS_P1;SDS_P2;PMS_P1;PMS_P2;Temp;Humidity;BMP_temperature;BMP_pressure;BME280_temperature;BME280_humidity;BME280_pressure;Samples;Min_cycle;Max_cycle;Signal;HPM_P1;HPM_P2
2023/03/08 00:00:20;;;;;;;3.07;2.60;;;;;;;;;;6260061;28;20482;-82
2023/03/08 00:03:25;;;;;;;2.13;2.03;;;;;;;;;;6259067;28;20553;-81
2023/03/08 00:06:30;;;;;;;5.30;3.07;;;;;;;;;;6258631;28;20300;-82
2023/03/08 00:09:38;;;;;;;3.03;2.80;;;;;;;;;;6258472;28;20336;-81
2023/03/08 00:12:46;;;;;;;3.10;2.90;;;;;;;;;;6241899;28;20292;-80
2023/03/08 00:15:51;;;;;;;1.57;1.57;;;;;;;;;;6258131;28;20299;-81
2023/03/08 00:18:57;;;;;;;3.83;2.50;;;;;;;;;;6258288;28;20309;-82
2023/03/08 00:22:04;;;;;;;2.60;2.40;;;;;;;;;;6259545;28;20297;-81
2023/03/08 00:25:11;;;;;;;2.93;2.67;;;;;;;;;;6259135;28;20298;-83
2023/03/08 00:28:19;;;;;;;2.83;2.63;;;;;;;;;;6266072;28;20306;-81
2023/03/08 00:31:24;;;;;;;2.83;2.63;;;;;;;;;;6259322;28;20317;-82
2023/03/08 00:34:31;;;;;;;2.30;2.13;;;;;;;;;;6257144;28;20294;-81
2023/03/08 00:37:36;;;;;;;2.87;2.50;;;;;;;;;;6258565;28;20269;-82
2023/03/08 00:40:41;;;;;;;4.03;2.73;;;;;;;;;;6257467;28;20306;-82
2023/03/08 00:43:48;;;;;;;1.63;1.63;;;;;;;;;;6257619;28;20299;-81
2023/03/08 00:46:53;;;;;;;3.07;2.40;;;;;;;;;;6259177;28;20293;-81
2023/03/08 00:49:59;;;;;;;2.00;1.90;;;;;;;;;;6257216;28;20308;-82
2023/03/08 00:53:06;;;;;;;2.00;2.00;;;;;;;;;;6257338;28;20294;-81
2023/03/08 00:56:14;;;;;;;3.03;2.13;;;;;;;;;;6259145;28;20298;-81
2023/03/08 00:59:21;;;;;;;3.60;2.23;;;;;;;;;;6257347;28;20482;-81
2023/03/08 01:02:25;;;;;;;2.50;2.40;;;;;;;;;;6241116;28;20304;-80
2023/03/08 01:05:31;;;;;;;2.40;2.40;;;;;;;;;;6259865;28;20567;-80
2023/03/08 01:08:37;;;;;;;3.70;2.50;;;;;;;;;;6261254;28;20617;-83
2023/03/08 01:11:43;;;;;;;2.40;2.30;;;;;;;;;;6257088;28;20304;-82
2023/03/08 01:14:51;;;;;;;2.03;1.93;;;;;;;;;;6258703;28;20294;-82
2023/03/08 01:17:57;;;;;;;2.03;2.03;;;;;;;;;;6258256;28;20313;-81
2023/03/08 01:21:04;;;;;;;1.87;1.60;;;;;;;;;;6257706;28;20662;-83
2023/03/08 01:24:11;;;;;;;2.30;2.20;;;;;;;;;;6256873;28;20304;-81
2023/03/08 01:27:17;;;;;;;1.87;1.70;;;;;;;;;;6259106;28;20296;-82
2023/03/08 01:30:23;;;;;;;2.00;2.00;;;;;;;;;;6257363;28;20308;-81
2023/03/08 01:33:29;;;;;;;2.30;2.13;;;;;;;;;;6256710;28;20298;-81
2023/03/08 01:36:34;;;;;;;1.27;1.27;;;;;;;;;;6257835;28;20292;-81
2023/03/08 01:39:39;;;;;;;2.37;2.27;;;;;;;;;;6258506;28;20300;-82
2023/03/08 01:42:45;;;;;;;1.43;1.43;;;;;;;;;;6256928;28;20288;-81
2023/03/08 01:46:19;;;;;;;2.60;2.20;;;;;;;;;;6257726;28;20290;-82
2023/03/08 01:49:30;;;;;;;2.53;2.23;;;;;;;;;;6260577;28;20289;-81
2023/03/08 01:52:40;;;;;;;2.70;2.50;;;;;;;;;;6262023;28;20537;-81
2023/03/08 01:55:45;;;;;;;2.90;2.80;;;;;;;;;;6261173;28;20281;-81
2023/03/08 01:58:51;;;;;;;2.30;2.10;;;;;;;;;;6263567;28;20571;-81
2023/03/08 02:02:47;;;;;;;2.50;2.50;;;;;;;;;;6261374;28;20299;-81
2023/03/08 02:06:03;;;;;;;2.30;2.13;;;;;;;;;;6482234;22;20271;31
2023/03/08 02:09:11;;;;;;;2.60;2.40;;;;;;;;;;6203366;28;20310;-81
2023/03/08 02:12:16;;;;;;;2.00;2.00;;;;;;;;;;6211757;28;20325;-82
2023/03/08 02:15:22;;;;;;;2.27;2.20;;;;;;;;;;6211317;28;20347;-81
2023/03/08 02:18:32;;;;;;;2.33;2.33;;;;;;;;;;6243736;28;20468;-82
2023/03/08 02:21:38;;;;;;;3.27;2.30;;;;;;;;;;6211685;28;20511;-81
2023/03/08 02:24:45;;;;;;;2.37;2.37;;;;;;;;;;6210687;28;20488;-80
2023/03/08 02:27:50;;;;;;;2.53;2.43;;;;;;;;;;6212219;28;20305;-80
2023/03/08 02:30:56;;;;;;;3.10;2.07;;;;;;;;;;6212163;28;20301;-80
2023/03/08 02:34:01;;;;;;;2.43;2.33;;;;;;;;;;6211062;28;20302;-81
2023/03/08 02:37:06;;;;;;;2.37;2.37;;;;;;;;;;6213283;28;20298;-82
2023/03/08 02:40:13;;;;;;;2.40;2.40;;;;;;;;;;6212386;28;20298;-82
2023/03/08 02:43:19;;;;;;;2.47;2.30;;;;;;;;;;6243549;28;20310;-82
2023/03/08 02:46:24;;;;;;;2.30;2.30;;;;;;;;;;6211455;28;20493;-80
2023/03/08 02:49:29;;;;;;;2.73;2.50;;;;;;;;;;6242730;28;20523;-81
2023/03/08 02:52:35;;;;;;;1.70;1.70;;;;;;;;;;6211258;28;20271;-79
2023/03/08 02:55:42;;;;;;;2.37;2.30;;;;;;;;;;6210887;28;20270;-81
2023/03/08 02:58:49;;;;;;;2.50;2.30;;;;;;;;;;6210400;28;20287;-82
2023/03/08 03:01:56;;;;;;;2.10;2.00;;;;;;;;;;6210943;28;20577;-81
2023/03/08 03:05:02;;;;;;;6.10;2.23;;;;;;;;;;6210280;28;20305;-81
2023/03/08 03:08:08;;;;;;;2.00;1.90;;;;;;;;;;6211585;28;20323;-81
2023/03/08 03:11:16;;;;;;;2.40;2.30;;;;;;;;;;6211984;28;20317;-82
2023/03/08 03:14:24;;;;;;;2.57;2.47;;;;;;;;;;6210374;28;20297;-81
2023/03/08 03:17:29;;;;;;;2.07;2.07;;;;;;;;;;6210870;28;20301;-81
2023/03/08 03:20:34;;;;;;;2.37;2.27;;;;;;;;;;6242768;28;20298;-82
2023/03/08 03:23:40;;;;;;;2.87;2.60;;;;;;;;;;6211455;28;20301;-81
2023/03/08 03:26:51;;;;;;;2.63;2.53;;;;;;;;;;6210903;28;20371;-82
2023/03/08 03:29:57;;;;;;;2.33;2.20;;;;;;;;;;6210320;28;20301;-83
2023/03/08 03:33:02;;;;;;;2.10;2.10;;;;;;;;;;6209649;28;20281;-81
2023/03/08 03:36:13;;;;;;;2.30;2.20;;;;;;;;;;6210216;28;20300;-80
2023/03/08 03:39:18;;;;;;;2.17;2.07;;;;;;;;;;6209919;28;20308;-80
2023/03/08 03:42:27;;;;;;;2.40;2.30;;;;;;;;;;6210508;28;20584;-81
2023/03/08 03:45:41;;;;;;;2.33;2.27;;;;;;;;;;6209414;28;20305;-81
2023/03/08 03:48:47;;;;;;;2.17;2.07;;;;;;;;;;6211244;28;20292;-81
2023/03/08 03:51:56;;;;;;;2.90;2.33;;;;;;;;;;6211573;28;20302;-82
2023/03/08 03:55:09;;;;;;;2.50;2.10;;;;;;;;;;6209354;28;20301;-81
2023/03/08 03:58:17;;;;;;;2.20;2.10;;;;;;;;;;6210709;28;20492;-82
2023/03/08 04:01:24;;;;;;;2.27;2.17;;;;;;;;;;6241923;28;20302;-82
2023/03/08 04:04:33;;;;;;;2.30;2.20;;;;;;;;;;6206206;28;20305;-81
2023/03/08 04:07:39;;;;;;;1.87;1.87;;;;;;;;;;6192359;28;20509;-81
2023/03/08 04:10:45;;;;;;;2.10;2.10;;;;;;;;;;6210567;28;20269;-80
2023/03/08 04:13:52;;;;;;;2.10;2.00;;;;;;;;;;6208441;28;20296;-80
2023/03/08 04:16:59;;;;;;;2.03;1.97;;;;;;;;;;6208931;28;20589;-81
2023/03/08 04:20:14;;;;;;;1.80;1.70;;;;;;;;;;6241570;28;20301;-81
2023/03/08 04:23:28;;;;;;;1.93;1.93;;;;;;;;;;6241939;28;20289;-81
2023/03/08 04:26:33;;;;;;;2.00;2.00;;;;;;;;;;6208819;28;20288;-81
2023/03/08 04:29:40;;;;;;;2.60;2.00;;;;;;;;;;6210227;28;20308;-83
2023/03/08 04:32:45;;;;;;;1.90;1.90;;;;;;;;;;6208791;28;20308;-81
2023/03/08 04:35:51;;;;;;;2.13;2.03;;;;;;;;;;6209148;28;20298;-81
2023/03/08 04:39:00;;;;;;;2.03;2.03;;;;;;;;;;6208517;28;20297;-81
2023/03/08 04:42:07;;;;;;;3.60;2.00;;;;;;;;;;6208803;28;20297;-81
2023/03/08 04:45:14;;;;;;;2.20;2.10;;;;;;;;;;6208364;28;20300;-82
2023/03/08 04:48:19;;;;;;;1.67;1.57;;;;;;;;;;6209937;28;20296;-81
2023/03/08 04:51:26;;;;;;;2.20;2.10;;;;;;;;;;6208732;28;20292;-81
2023/03/08 04:54:34;;;;;;;1.80;1.80;;;;;;;;;;6241390;28;20605;-82
2023/03/08 04:57:43;;;;;;;1.70;1.70;;;;;;;;;;6208096;28;20302;-80
2023/03/08 05:00:50;;;;;;;2.17;2.10;;;;;;;;;;6209038;28;20300;-80
2023/03/08 05:03:56;;;;;;;2.30;2.20;;;;;;;;;;6210264;28;20309;-81
2023/03/08 05:07:09;;;;;;;5.07;2.13;;;;;;;;;;6208911;28;20302;-81
2023/03/08 05:10:15;;;;;;;1.90;1.90;;;;;;;;;;6209366;28;20375;-82
2023/03/08 05:13:21;;;;;;;3.80;2.07;;;;;;;;;;6242911;28;20342;-81
2023/03/08 05:16:28;;;;;;;2.63;2.00;;;;;;;;;;6218189;28;20316;-82
2023/03/08 05:19:34;;;;;;;2.43;2.33;;;;;;;;;;6239583;28;20292;-80
2023/03/08 05:22:39;;;;;;;3.37;1.83;;;;;;;;;;6242418;28;20271;-81
2023/03/08 05:26:07;;;;;;;5.80;1.90;;;;;;;;;;6213558;28;20292;-80
2023/03/08 05:29:13;;;;;;;2.93;2.10;;;;;;;;;;6213440;28;20298;-81
2023/03/08 05:32:20;;;;;;;3.13;2.10;;;;;;;;;;6245348;28;20297;-81
2023/03/08 05:35:27;;;;;;;2.53;2.23;;;;;;;;;;6212958;28;20316;-82
2023/03/08 05:38:33;;;;;;;2.13;1.90;;;;;;;;;;6211952;28;20302;-81
2023/03/08 05:41:42;;;;;;;2.80;1.80;;;;;;;;;;6212497;28;20546;-81
2023/03/08 05:44:50;;;;;;;2.10;2.00;;;;;;;;;;6244246;28;20620;-81
2023/03/08 05:48:02;;;;;;;1.80;1.70;;;;;;;;;;6228162;28;20366;-80
2023/03/08 05:51:12;;;;;;;2.00;1.90;;;;;;;;;;6244988;28;20304;-81
2023/03/08 05:54:17;;;;;;;1.90;1.80;;;;;;;;;;6213266;28;20308;-82
2023/03/08 05:57:25;;;;;;;1.80;1.80;;;;;;;;;;6244716;28;20600;-80
2023/03/08 06:00:31;;;;;;;2.00;2.00;;;;;;;;;;6211751;28;20394;-82
2023/03/08 06:03:38;;;;;;;2.00;1.97;;;;;;;;;;6211520;28;20290;-82
2023/03/08 06:06:43;;;;;;;2.30;2.10;;;;;;;;;;6211638;28;20340;-81
2023/03/08 06:09:50;;;;;;;1.83;1.80;;;;;;;;;;6244015;28;20325;-82
2023/03/08 06:12:56;;;;;;;2.97;2.10;;;;;;;;;;6213377;28;20313;-81
2023/03/08 06:16:02;;;;;;;1.77;1.70;;;;;;;;;;6211755;28;20581;-81
2023/03/08 06:19:10;;;;;;;1.87;1.77;;;;;;;;;;6211113;28;20304;-81
2023/03/08 06:22:16;;;;;;;2.13;2.00;;;;;;;;;;6227758;28;20301;-81
2023/03/08 06:25:22;;;;;;;1.90;1.90;;;;;;;;;;6210590;28;20298;-83
2023/03/08 06:28:29;;;;;;;2.20;2.10;;;;;;;;;;6211090;28;20299;-80
2023/03/08 06:31:34;;;;;;;1.60;1.60;;;;;;;;;;6244648;28;20272;-82
2023/03/08 06:34:43;;;;;;;1.97;1.87;;;;;;;;;;6242892;28;20306;-83
2023/03/08 06:37:49;;;;;;;1.80;1.47;;;;;;;;;;6210790;28;20576;-83
2023/03/08 06:40:54;;;;;;;1.93;1.83;;;;;;;;;;6213197;28;20296;-80
2023/03/08 06:44:00;;;;;;;2.47;1.30;;;;;;;;;;6244465;28;20369;-81
2023/03/08 06:47:05;;;;;;;1.80;1.80;;;;;;;;;;6243914;28;20384;-80
2023/03/08 06:50:13;;;;;;;1.73;1.63;;;;;;;;;;6243012;28;20563;-80
2023/03/08 06:53:22;;;;;;;1.97;1.97;;;;;;;;;;6194318;28;20318;-79
2023/03/08 06:56:36;;;;;;;1.60;1.60;;;;;;;;;;6147971;29;20297;-80
2023/03/08 06:59:41;;;;;;;1.67;1.57;;;;;;;;;;6162308;28;20294;-81
2023/03/08 07:02:47;;;;;;;2.37;2.27;;;;;;;;;;6163752;28;20342;-77
2023/03/08 07:05:57;;;;;;;1.83;1.73;;;;;;;;;;6164043;28;20294;-80
2023/03/08 07:09:03;;;;;;;1.77;1.77;;;;;;;;;;6194304;28;20303;-80
2023/03/08 07:12:09;;;;;;;1.67;1.63;;;;;;;;;;6170866;28;20298;-80
2023/03/08 07:15:15;;;;;;;1.67;1.67;;;;;;;;;;6186667;28;20471;-79
2023/03/08 07:18:21;;;;;;;2.03;1.90;;;;;;;;;;6187473;28;20305;-81
2023/03/08 07:21:28;;;;;;;2.37;2.27;;;;;;;;;;6188327;28;20305;-79
2023/03/08 07:24:32;;;;;;;2.03;1.97;;;;;;;;;;6188028;28;20298;-79
2023/03/08 07:27:38;;;;;;;2.20;2.10;;;;;;;;;;6185611;28;20316;-79
2023/03/08 07:30:47;;;;;;;1.70;1.70;;;;;;;;;;6163352;28;20298;-82
2023/03/08 07:33:53;;;;;;;2.07;1.97;;;;;;;;;;6199423;28;20291;-81
2023/03/08 07:36:59;;;;;;;2.10;2.00;;;;;;;;;;6170051;28;20303;-81
2023/03/08 07:40:05;;;;;;;2.63;2.30;;;;;;;;;;6164474;28;20301;-79
2023/03/08 07:43:12;;;;;;;4.67;2.03;;;;;;;;;;6164073;28;20321;-80
2023/03/08 07:46:37;;;;;;;1.73;1.70;;;;;;;;;;6173373;28;20296;-80
2023/03/08 07:49:42;;;;;;;1.90;1.80;;;;;;;;;;6187233;28;20478;-80
2023/03/08 07:52:49;;;;;;;2.10;2.00;;;;;;;;;;6187319;28;20274;-81
2023/03/08 07:55:54;;;;;;;2.03;1.93;;;;;;;;;;6187612;28;20321;-81
2023/03/08 07:58:59;;;;;;;1.90;1.90;;;;;;;;;;6187312;28;20407;-79
2023/03/08 08:02:05;;;;;;;1.87;1.67;;;;;;;;;;6188124;28;20282;-82
2023/03/08 08:05:12;;;;;;;1.70;1.70;;;;;;;;;;6187008;28;20313;-82
2023/03/08 08:08:19;;;;;;;2.00;1.83;;;;;;;;;;6185744;28;20324;-81
2023/03/08 08:11:28;;;;;;;1.90;1.80;;;;;;;;;;6218964;28;20491;-81
2023/03/08 08:14:33;;;;;;;2.23;2.13;;;;;;;;;;6188158;28;20300;-81
2023/03/08 08:17:38;;;;;;;2.10;2.00;;;;;;;;;;6187230;28;20305;-81
2023/03/08 08:20:44;;;;;;;1.80;1.80;;;;;;;;;;6218672;28;20301;-82
2023/03/08 08:23:52;;;;;;;2.03;1.93;;;;;;;;;;6187665;28;20290;-82
2023/03/08 08:26:57;;;;;;;1.67;1.67;;;;;;;;;;6208984;28;20285;-82
2023/03/08 08:30:04;;;;;;;2.23;1.90;;;;;;;;;;6193630;28;20299;-83
2023/03/08 08:33:18;;;;;;;1.73;1.73;;;;;;;;;;6163157;28;20303;-83
2023/03/08 08:36:23;;;;;;;1.50;1.50;;;;;;;;;;6162799;28;20294;-82
2023/03/08 08:39:45;;;;;;;2.03;1.80;;;;;;;;;;6176715;28;20303;-82
2023/03/08 08:42:52;;;;;;;1.90;1.90;;;;;;;;;;6217616;28;20300;-82
2023/03/08 08:45:58;;;;;;;3.13;1.73;;;;;;;;;;6218286;28;20296;-82
2023/03/08 08:49:05;;;;;;;1.90;1.80;;;;;;;;;;6217790;28;20301;-83
2023/03/08 08:52:11;;;;;;;1.83;1.83;;;;;;;;;;6186190;28;20299;-75
2023/03/08 08:55:18;;;;;;;2.10;2.10;;;;;;;;;;6186711;28;20561;-73
2023/03/08 08:58:23;;;;;;;2.00;2.00;;;;;;;;;;6221727;28;20625;-72
2023/03/08 09:01:30;;;;;;;1.80;1.80;;;;;;;;;;6191323;28;20281;-71
2023/03/08 09:04:36;;;;;;;2.47;1.97;;;;;;;;;;6189833;28;20298;-71
2023/03/08 09:07:41;;;;;;;1.90;1.90;;;;;;;;;;6191190;28;20306;-73
2023/03/08 09:10:48;;;;;;;1.70;1.70;;;;;;;;;;6191509;28;20270;-72
2023/03/08 09:13:53;;;;;;;2.00;1.97;;;;;;;;;;6191313;28;20302;-72
2023/03/08 09:16:58;;;;;;;1.73;1.73;;;;;;;;;;6191137;28;20305;-72
2023/03/08 09:20:08;;;;;;;1.73;1.73;;;;;;;;;;6189393;28;20290;-73
2023/03/08 09:23:13;;;;;;;1.80;1.80;;;;;;;;;;6190476;28;20296;-72
2023/03/08 09:26:20;;;;;;;2.03;1.80;;;;;;;;;;6191147;28;20496;-73
2023/03/08 09:29:25;;;;;;;1.23;1.23;;;;;;;;;;6190539;28;20308;-72
2023/03/08 09:32:33;;;;;;;1.90;1.90;;;;;;;;;;6190690;28;20543;-73
2023/03/08 09:35:38;;;;;;;1.43;1.43;;;;;;;;;;6190265;28;20295;-72
2023/03/08 09:38:43;;;;;;;1.50;1.50;;;;;;;;;;6190648;28;20294;-73
2023/03/08 09:41:53;;;;;;;1.97;1.80;;;;;;;;;;6191159;28;20294;-71
2023/03/08 09:45:14;;;;;;;2.37;2.37;;;;;;;;;;6190537;28;20596;-73
2023/03/08 09:48:23;;;;;;;1.90;1.90;;;;;;;;;;6190359;28;20303;-71
2023/03/08 09:51:33;;;;;;;2.23;2.13;;;;;;;;;;6190751;28;20293;-70
2023/03/08 09:54:39;;;;;;;2.20;2.00;;;;;;;;;;6221012;28;20496;-72
2023/03/08 09:57:50;;;;;;;2.00;2.00;;;;;;;;;;6191049;28;20304;-71
2023/03/08 10:00:56;;;;;;;1.87;1.80;;;;;;;;;;6193032;28;20305;-73
2023/03/08 10:04:25;;;;;;;2.50;2.40;;;;;;;;;;6190287;28;20297;-72
2023/03/08 10:07:37;;;;;;;1.63;1.63;;;;;;;;;;6188128;28;20311;-71
2023/03/08 10:10:48;;;;;;;1.83;1.83;;;;;;;;;;6188961;28;20280;-73
2023/03/08 10:13:58;;;;;;;2.63;2.63;;;;;;;;;;6189843;28;20310;-72
2023/03/08 10:17:12;;;;;;;4.77;4.47;;;;;;;;;;6220585;28;20300;-70
2023/03/08 10:20:19;;;;;;;1.83;1.83;;;;;;;;;;6189514;28;20322;-72
2023/03/08 10:23:28;;;;;;;2.20;2.10;;;;;;;;;;6189307;28;20295;-71
2023/03/08 10:26:33;;;;;;;2.07;2.07;;;;;;;;;;6189652;28;20296;-72
2023/03/08 10:29:39;;;;;;;2.20;2.10;;;;;;;;;;6189442;28;20307;-72
2023/03/08 10:32:47;;;;;;;2.33;1.90;;;;;;;;;;6189801;28;20590;-72
2023/03/08 10:35:58;;;;;;;1.50;1.50;;;;;;;;;;6190828;28;20294;-72
2023/03/08 10:39:08;;;;;;;1.90;1.80;;;;;;;;;;6190388;28;20304;-73
2023/03/08 10:42:16;;;;;;;2.00;1.80;;;;;;;;;;6189319;28;20294;-71
2023/03/08 10:45:24;;;;;;;2.93;2.67;;;;;;;;;;6188670;28;20558;-72
2023/03/08 10:48:30;;;;;;;1.63;1.57;;;;;;;;;;6188616;28;20299;-71
2023/03/08 10:51:35;;;;;;;2.77;2.20;;;;;;;;;;6189170;28;20298;-72
2023/03/08 10:54:40;;;;;;;3.13;2.17;;;;;;;;;;6188723;28;20302;-72
2023/03/08 10:57:51;;;;;;;2.43;2.33;;;;;;;;;;6188841;28;20323;-72
2023/03/08 11:00:59;;;;;;;2.20;2.10;;;;;;;;;;6188052;28;20301;-72
2023/03/08 11:04:12;;;;;;;2.00;2.00;;;;;;;;;;6188448;28;20294;-73
2023/03/08 11:07:23;;;;;;;2.60;2.50;;;;;;;;;;6188554;28;20313;-71
2023/03/08 11:10:30;;;;;;;3.83;2.67;;;;;;;;;;6187709;28;20300;-72
2023/03/08 11:13:40;;;;;;;3.00;2.80;;;;;;;;;;6188129;28;20348;-72
2023/03/08 11:16:55;;;;;;;2.37;2.30;;;;;;;;;;6188345;28;20282;-72
2023/03/08 11:20:09;;;;;;;3.10;2.90;;;;;;;;;;6187882;28;20290;-72
2023/03/08 11:23:20;;;;;;;2.50;2.40;;;;;;;;;;6187990;28;20302;-72
2023/03/08 11:26:30;;;;;;;2.97;2.73;;;;;;;;;;6189460;28;20298;-73
2023/03/08 11:29:45;;;;;;;2.10;2.10;;;;;;;;;;6190900;28;20305;-72
2023/03/08 11:33:19;;;;;;;2.73;2.57;;;;;;;;;;6187328;28;20294;-71
2023/03/08 11:36:29;;;;;;;2.70;1.80;;;;;;;;;;6178946;28;20308;-72
2023/03/08 11:39:35;;;;;;;2.87;1.70;;;;;;;;;;6188636;28;20303;-72
2023/03/08 11:42:45;;;;;;;2.33;2.00;;;;;;;;;;6186942;28;20299;-72
2023/03/08 11:45:57;;;;;;;2.30;2.20;;;;;;;;;;6187779;28;20302;-72
2023/03/08 11:49:19;;;;;;;1.70;1.70;;;;;;;;;;6187399;28;20336;-72
2023/03/08 11:52:32;;;;;;;1.70;1.70;;;;;;;;;;6187808;28;20299;-73
2023/03/08 11:55:56;;;;;;;1.90;1.80;;;;;;;;;;6186378;28;20379;-73
2023/03/08 11:59:05;;;;;;;2.17;1.97;;;;;;;;;;6187792;28;20290;-73
2023/03/08 12:02:16;;;;;;;1.57;1.57;;;;;;;;;;6188243;28;20309;-73
2023/03/08 12:05:28;;;;;;;1.67;1.67;;;;;;;;;;6187682;28;20366;-73
2023/03/08 12:08:38;;;;;;;1.87;1.70;;;;;;;;;;6186913;28;20300;-74
2023/03/08 12:11:46;;;;;;;1.87;1.87;;;;;;;;;;6187770;28;20310;-71
2023/03/08 12:14:55;;;;;;;1.60;1.60;;;;;;;;;;6186542;28;20301;-73
2023/03/08 12:18:05;;;;;;;1.70;1.70;;;;;;;;;;6187074;28;20291;-74
2023/03/08 12:21:25;;;;;;;2.67;2.63;;;;;;;;;;6217874;28;20319;-73
2023/03/08 12:24:44;;;;;;;2.00;1.90;;;;;;;;;;6187663;28;20297;-72
2023/03/08 12:27:52;;;;;;;2.80;2.70;;;;;;;;;;6187171;28;20338;-74
2023/03/08 12:31:08;;;;;;;2.00;2.00;;;;;;;;;;6187181;28;20298;-72
2023/03/08 12:34:38;;;;;;;1.50;1.50;;;;;;;;;;6185978;28;20296;-73
2023/03/08 12:37:44;;;;;;;1.70;1.70;;;;;;;;;;6186275;28;20300;-71
2023/03/08 12:40:51;;;;;;;1.97;1.80;;;;;;;;;;6188056;28;20288;-72
2023/03/08 12:44:02;;;;;;;1.70;1.70;;;;;;;;;;6186861;28;20289;-71
2023/03/08 12:47:20;;;;;;;2.10;2.10;;;;;;;;;;6187173;28;20319;-72
2023/03/08 12:50:26;;;;;;;2.23;2.03;;;;;;;;;;6186245;28;20409;-73
2023/03/08 12:53:37;;;;;;;1.63;1.53;;;;;;;;;;6186821;28;20314;-72
2023/03/08 12:56:51;;;;;;;1.83;1.60;;;;;;;;;;6186827;28;20307;-74
2023/03/08 12:59:58;;;;;;;1.90;1.90;;;;;;;;;;6186476;28;20302;-73
2023/03/08 13:03:05;;;;;;;2.47;2.27;;;;;;;;;;6185371;28;20296;-73
2023/03/08 13:06:27;;;;;;;2.03;1.93;;;;;;;;;;6186391;28;20441;-73
2023/03/08 13:09:37;;;;;;;2.67;2.00;;;;;;;;;;6185660;28;20302;-73
2023/03/08 13:13:02;;;;;;;1.80;1.80;;;;;;;;;;6187768;28;20299;-72
2023/03/08 13:16:32;;;;;;;1.60;1.60;;;;;;;;;;6188540;28;20290;-73
2023/03/08 13:19:37;;;;;;;1.70;1.70;;;;;;;;;;6185542;28;20299;-73
2023/03/08 13:22:54;;;;;;;1.70;1.60;;;;;;;;;;6185645;28;20278;-72
2023/03/08 13:26:14;;;;;;;1.60;1.60;;;;;;;;;;6187015;28;20287;-72
2023/03/08 13:29:20;;;;;;;1.63;1.63;;;;;;;;;;6162224;28;20313;-73
2023/03/08 13:32:26;;;;;;;1.90;1.80;;;;;;;;;;6162747;28;20299;-73
2023/03/08 13:35:31;;;;;;;1.37;1.37;;;;;;;;;;6162123;28;20304;-72
2023/03/08 13:38:37;;;;;;;1.70;1.70;;;;;;;;;;6162294;28;20312;-73
2023/03/08 13:41:45;;;;;;;1.50;1.40;;;;;;;;;;6175936;28;20587;-73
2023/03/08 13:44:50;;;;;;;1.63;1.53;;;;;;;;;;6165214;28;20295;-72
2023/03/08 13:47:58;;;;;;;1.60;1.60;;;;;;;;;;6166943;28;20316;-72
2023/03/08 13:51:04;;;;;;;1.57;1.57;;;;;;;;;;6183812;28;20307;-74
2023/03/08 13:54:28;;;;;;;1.77;1.57;;;;;;;;;;6189809;28;20296;-73
2023/03/08 13:57:37;;;;;;;1.47;1.47;;;;;;;;;;6192326;28;20513;-74
2023/03/08 14:00:42;;;;;;;2.53;2.43;;;;;;;;;;6190223;28;20643;-74
2023/03/08 14:03:48;;;;;;;3.00;2.87;;;;;;;;;;6197668;28;20343;-74
2023/03/08 14:06:54;;;;;;;2.70;2.67;;;;;;;;;;6195279;28;20308;-73
2023/03/08 14:10:00;;;;;;;2.23;2.13;;;;;;;;;;6190217;28;20309;-74
2023/03/08 14:13:13;;;;;;;1.63;1.63;;;;;;;;;;6189024;28;20301;-74
2023/03/08 14:16:27;;;;;;;1.63;1.60;;;;;;;;;;6190284;28;20291;-73
2023/03/08 14:19:35;;;;;;;2.13;1.97;;;;;;;;;;6188504;28;20328;-73
2023/03/08 14:22:40;;;;;;;1.90;1.90;;;;;;;;;;6189237;28;20294;-72
2023/03/08 14:25:45;;;;;;;1.20;1.20;;;;;;;;;;6189996;28;20271;-74
2023/03/08 14:29:05;;;;;;;1.70;1.70;;;;;;;;;;6190132;28;20351;-73
2023/03/08 14:32:29;;;;;;;1.63;1.50;;;;;;;;;;6189834;28;20592;-74
2023/03/08 14:35:37;;;;;;;1.93;1.60;;;;;;;;;;6189281;28;20295;-73
2023/03/08 14:38:42;;;;;;;1.50;1.50;;;;;;;;;;6188356;28;20307;-74
2023/03/08 14:41:47;;;;;;;1.43;1.43;;;;;;;;;;6189336;28;20293;-73
2023/03/08 14:44:56;;;;;;;1.60;1.50;;;;;;;;;;6188155;28;20318;-74
2023/03/08 14:48:14;;;;;;;3.60;2.37;;;;;;;;;;6188902;28;20295;-73
2023/03/08 14:51:29;;;;;;;1.67;1.57;;;;;;;;;;6191934;28;20302;-73
2023/03/08 14:54:35;;;;;;;1.50;1.50;;;;;;;;;;6188214;28;20294;-73
2023/03/08 14:57:41;;;;;;;1.40;1.40;;;;;;;;;;6188459;28;20303;-73
2023/03/08 15:00:51;;;;;;;1.43;1.43;;;;;;;;;;6189197;28;20303;-72
2023/03/08 15:03:57;;;;;;;1.50;1.50;;;;;;;;;;6188604;28;20299;-72
2023/03/08 15:07:02;;;;;;;5.23;1.57;;;;;;;;;;6187635;28;20326;-72
2023/03/08 15:10:09;;;;;;;1.53;1.53;;;;;;;;;;6188324;28;20319;-72
2023/03/08 15:13:20;;;;;;;1.40;1.40;;;;;;;;;;6188561;28;20300;-71
2023/03/08 15:16:26;;;;;;;1.60;1.60;;;;;;;;;;6188829;28;20304;-73
2023/03/08 15:19:32;;;;;;;1.00;1.00;;;;;;;;;;6187627;28;20294;-74
2023/03/08 15:22:41;;;;;;;1.47;1.47;;;;;;;;;;6188350;28;20279;-72
2023/03/08 15:25:47;;;;;;;2.23;1.50;;;;;;;;;;6188786;28;20268;-73
2023/03/08 15:28:52;;;;;;;2.60;2.50;;;;;;;;;;6187603;28;20294;-73
2023/03/08 15:31:59;;;;;;;25.07;9.93;;;;;;;;;;6188388;28;20299;-73
2023/03/08 15:35:04;;;;;;;12.90;6.13;;;;;;;;;;6187327;28;20299;-73
2023/03/08 15:38:13;;;;;;;11.90;5.90;;;;;;;;;;6187330;28;20612;-72
2023/03/08 15:41:18;;;;;;;11.07;5.50;;;;;;;;;;6186841;28;20295;-73
2023/03/08 15:44:23;;;;;;;1.43;1.43;;;;;;;;;;6187389;28;20579;-73
2023/03/08 15:47:30;;;;;;;1.70;1.60;;;;;;;;;;6188048;28;20294;-73
2023/03/08 15:50:35;;;;;;;1.80;1.80;;;;;;;;;;6187543;28;20647;-73
2023/03/08 15:53:40;;;;;;;1.70;1.70;;;;;;;;;;6187111;28;20294;-73
2023/03/08 15:56:45;;;;;;;1.77;1.77;;;;;;;;;;6187630;28;20291;-72
2023/03/08 15:59:51;;;;;;;1.77;1.67;;;;;;;;;;6185879;28;20299;-72
2023/03/08 16:02:57;;;;;;;1.60;1.60;;;;;;;;;;6187462;28;20470;-73
2023/03/08 16:06:03;;;;;;;1.60;1.60;;;;;;;;;;6187337;28;20300;-72
2023/03/08 16:09:08;;;;;;;2.07;1.87;;;;;;;;;;6188918;28;20312;-73
2023/03/08 16:12:14;;;;;;;1.90;1.80;;;;;;;;;;6188133;28;20310;-73
2023/03/08 16:15:19;;;;;;;1.57;1.57;;;;;;;;;;6186879;28;20294;-73
2023/03/08 16:18:26;;;;;;;1.50;1.50;;;;;;;;;;6186324;28;20334;-72
2023/03/08 16:21:31;;;;;;;1.50;1.50;;;;;;;;;;6187353;28;20366;-72
2023/03/08 16:24:36;;;;;;;1.87;1.70;;;;;;;;;;6186634;28;20306;-72
2023/03/08 16:27:43;;;;;;;2.43;1.70;;;;;;;;;;6187177;28;20463;-72
2023/03/08 16:30:48;;;;;;;2.40;2.20;;;;;;;;;;6188576;28;20301;-73
2023/03/08 16:33:54;;;;;;;2.27;2.17;;;;;;;;;;6186423;28;20451;-73
2023/03/08 16:37:00;;;;;;;1.93;1.83;;;;;;;;;;6187089;28;20301;-73
2023/03/08 16:40:06;;;;;;;1.70;1.60;;;;;;;;;;6186551;28;20312;-73
2023/03/08 16:43:13;;;;;;;1.90;1.90;;;;;;;;;;6186798;28;20552;-73
2023/03/08 16:46:19;;;;;;;2.10;1.90;;;;;;;;;;6186971;28;20291;-72
2023/03/08 16:49:27;;;;;;;1.90;1.90;;;;;;;;;;6186125;28;20299;-73
2023/03/08 16:52:32;;;;;;;22.33;8.67;;;;;;;;;;6185881;28;20291;-72
2023/03/08 16:55:37;;;;;;;3.23;3.03;;;;;;;;;;6186007;28;20282;-72
2023/03/08 16:58:42;;;;;;;5.93;4.87;;;;;;;;;;6186424;28;20311;-72
2023/03/08 17:01:48;;;;;;;3.00;2.80;;;;;;;;;;6186642;28;20446;-73
2023/03/08 17:04:55;;;;;;;2.83;2.73;;;;;;;;;;6208140;28;20297;-72
2023/03/08 17:08:00;;;;;;;2.40;2.20;;;;;;;;;;6186248;28;20300;-73
2023/03/08 17:11:06;;;;;;;2.80;2.70;;;;;;;;;;6186500;28;20460;-73
2023/03/08 17:14:13;;;;;;;2.53;2.43;;;;;;;;;;6186052;28;20300;-72
2023/03/08 17:17:19;;;;;;;3.30;2.40;;;;;;;;;;6187298;28;20328;-73
2023/03/08 17:20:25;;;;;;;2.97;2.77;;;;;;;;;;6221414;28;20313;-72
2023/03/08 17:23:31;;;;;;;2.60;2.50;;;;;;;;;;6191277;28;20309;-73
2023/03/08 17:26:37;;;;;;;3.63;3.47;;;;;;;;;;6191347;28;20286;-73
2023/03/08 17:29:42;;;;;;;4.20;3.90;;;;;;;;;;6190415;28;20471;-73
2023/03/08 17:32:48;;;;;;;3.00;2.80;;;;;;;;;;6190379;28;20307;-73
2023/03/08 17:35:57;;;;;;;2.73;2.60;;;;;;;;;;6190851;28;20292;-72
2023/03/08 17:39:03;;;;;;;2.97;2.87;;;;;;;;;;6189995;28;20308;-74
2023/03/08 17:42:09;;;;;;;2.90;2.77;;;;;;;;;;6190806;28;20311;-73
2023/03/08 17:45:15;;;;;;;8.40;5.00;;;;;;;;;;6190122;28;20477;-72
2023/03/08 17:48:20;;;;;;;7.70;7.10;;;;;;;;;;6190780;28;20296;-73
2023/03/08 17:51:28;;;;;;;7.60;6.83;;;;;;;;;;6190367;28;20308;-73
2023/03/08 17:54:33;;;;;;;3.20;3.00;;;;;;;;;;6190333;28;20467;-73
2023/03/08 17:57:39;;;;;;;4.13;3.63;;;;;;;;;;6221097;28;20296;-72
2023/03/08 18:00:44;;;;;;;2.60;2.50;;;;;;;;;;6190801;28;20315;-72
2023/03/08 18:03:49;;;;;;;2.03;2.03;;;;;;;;;;6190317;28;20319;-74
2023/03/08 18:06:56;;;;;;;3.00;2.80;;;;;;;;;;6193032;28;20498;-73
2023/03/08 18:10:02;;;;;;;3.43;2.80;;;;;;;;;;6190967;28;20298;-74
2023/03/08 18:13:07;;;;;;;2.90;2.70;;;;;;;;;;6189946;28;20303;-73
2023/03/08 18:16:12;;;;;;;2.17;2.07;;;;;;;;;;6190049;28;20298;-73
2023/03/08 18:19:17;;;;;;;2.23;2.10;;;;;;;;;;6189914;28;20306;-72
2023/03/08 18:22:24;;;;;;;3.20;3.10;;;;;;;;;;6190416;28;20310;-73
2023/03/08 18:25:29;;;;;;;2.93;2.83;;;;;;;;;;6188613;28;20299;-72
2023/03/08 18:28:35;;;;;;;3.10;2.30;;;;;;;;;;6189267;28;20297;-73
2023/03/08 18:31:40;;;;;;;2.70;2.60;;;;;;;;;;6190347;28;20410;-73
2023/03/08 18:34:46;;;;;;;2.53;2.43;;;;;;;;;;6189678;28;20303;-73
2023/03/08 18:37:53;;;;;;;2.50;2.47;;;;;;;;;;6220770;28;20295;-74
2023/03/08 18:40:58;;;;;;;2.10;2.10;;;;;;;;;;6189523;28;20454;-73
2023/03/08 18:44:03;;;;;;;2.53;2.43;;;;;;;;;;6189397;28;20553;-73
2023/03/08 18:47:09;;;;;;;1.90;1.90;;;;;;;;;;6189709;28;20577;-73